createdAt,value
2023-08-05T00:00:08.947Z,5.70
2023-08-05T00:02:37.713Z,6.18
2023-08-05T00:05:06.489Z,6.28
2023-08-05T00:07:34.398Z,6.75
2023-08-05T00:10:02.450Z,5.72
2023-08-05T00:12:31.654Z,6.75
2023-08-05T00:14:59.472Z,6.90
2023-08-05T00:17:27.338Z,6.35
2023-08-05T00:19:55.621Z,6.70
2023-08-05T00:22:23.545Z,6.50
2023-08-05T00:24:51.670Z,7.10
2023-08-05T00:27:19.443Z,6.65
2023-08-05T00:29:48.682Z,6.82
2023-08-05T00:32:16.560Z,6.75
2023-08-05T00:34:44.491Z,6.60
2023-08-05T00:37:12.506Z,8.18
2023-08-05T00:39:40.792Z,6.85
2023-08-05T00:42:08.881Z,6.90
2023-08-05T00:44:36.976Z,7.30
2023-08-05T00:47:07.127Z,7.00
2023-08-05T00:49:35.077Z,7.45
2023-08-05T00:52:02.993Z,7.00
2023-08-05T00:54:30.904Z,7.22
2023-08-05T00:56:59.235Z,7.07
2023-08-05T00:59:27.229Z,7.50
2023-08-05T01:01:55.654Z,8.20
2023-08-05T01:04:24.967Z,8.48
2023-08-05T01:06:53.393Z,7.90
2023-08-05T01:09:21.408Z,7.20
2023-08-05T01:11:49.835Z,7.13
2023-08-05T01:14:17.750Z,7.35
2023-08-05T01:16:46.458Z,7.13
2023-08-05T01:19:20.496Z,6.80
2023-08-05T01:21:56.029Z,7.05
2023-08-05T01:24:29.804Z,7.13
2023-08-05T01:26:59.823Z,6.40
2023-08-05T01:29:28.443Z,7.45
2023-08-05T01:31:56.845Z,7.38
2023-08-05T01:34:25.041Z,7.57
2023-08-05T01:36:53.113Z,8.13
2023-08-05T01:39:21.078Z,8.05
2023-08-05T01:41:48.924Z,7.78
2023-08-05T01:44:18.055Z,8.30
2023-08-05T01:46:45.990Z,7.88
2023-08-05T01:49:13.916Z,8.07
2023-08-05T01:51:43.659Z,8.57
2023-08-05T01:54:11.446Z,7.97
2023-08-05T01:56:39.545Z,8.35
2023-08-05T01:59:07.405Z,8.02
2023-08-05T02:01:43.612Z,8.18
2023-08-05T02:04:11.692Z,8.10
2023-08-05T02:06:39.794Z,8.85
2023-08-05T02:09:07.733Z,7.20
2023-08-05T02:11:36.014Z,8.68
2023-08-05T02:14:04.068Z,7.53
2023-08-05T02:16:34.766Z,7.22
2023-08-05T02:19:04.009Z,7.18
2023-08-05T02:21:33.574Z,6.65
2023-08-05T02:24:01.408Z,6.00
2023-08-05T02:26:29.248Z,6.22
2023-08-05T02:28:57.343Z,6.43
2023-08-05T02:31:25.295Z,6.25
2023-08-05T02:33:53.294Z,5.93
2023-08-05T02:36:22.567Z,5.70
2023-08-05T02:38:50.374Z,5.88
2023-08-05T02:41:18.324Z,5.35
2023-08-05T02:43:46.470Z,5.80
2023-08-05T02:46:14.306Z,5.47
2023-08-05T02:48:42.217Z,5.70
2023-08-05T02:51:10.100Z,5.07
2023-08-05T02:53:39.499Z,5.53
2023-08-05T02:56:07.322Z,6.13
2023-08-05T02:58:35.298Z,5.82
2023-08-05T03:01:07.235Z,5.50
2023-08-05T03:03:35.209Z,5.65
2023-08-05T03:06:03.083Z,6.00
2023-08-05T03:08:31.148Z,6.20
2023-08-05T03:11:00.895Z,5.65
2023-08-05T03:13:29.966Z,6.10
2023-08-05T03:16:10.279Z,4.80
2023-08-05T03:18:39.727Z,5.65
2023-08-05T03:21:08.366Z,6.22
2023-08-05T03:23:38.777Z,6.00
2023-08-05T03:26:08.558Z,5.95
2023-08-05T03:28:43.346Z,5.50
2023-08-05T03:31:19.644Z,5.45
2023-08-05T03:34:10.503Z,5.68
2023-08-05T03:36:42.280Z,5.80
2023-08-05T03:39:22.818Z,5.93
2023-08-05T03:41:57.907Z,5.25
2023-08-05T03:44:48.512Z,5.60
2023-08-05T03:47:25.884Z,5.63
2023-08-05T03:50:01.626Z,5.10
2023-08-05T03:52:46.494Z,5.45
2023-08-05T03:55:24.619Z,4.95
2023-08-05T03:57:57.612Z,5.55
2023-08-05T04:00:26.752Z,5.32
2023-08-05T04:02:56.851Z,5.05
2023-08-05T04:05:24.783Z,5.30
2023-08-05T04:07:54.280Z,5.32
2023-08-05T04:10:23.358Z,5.15
2023-08-05T04:12:51.781Z,5.32
2023-08-05T04:15:21.388Z,6.10
2023-08-05T04:17:49.710Z,5.47
2023-08-05T04:20:19.200Z,5.43
2023-08-05T04:22:50.244Z,5.88
2023-08-05T04:25:18.336Z,5.90
2023-08-05T04:27:47.469Z,6.32
2023-08-05T04:30:15.291Z,5.53
2023-08-05T04:32:44.377Z,5.50
2023-08-05T04:35:12.403Z,6.20
2023-08-05T04:37:40.242Z,5.60
2023-08-05T04:40:09.089Z,6.30
2023-08-05T04:42:37.190Z,6.40
2023-08-05T04:45:05.649Z,6.57
2023-08-05T04:47:33.554Z,6.30
2023-08-05T04:50:02.817Z,6.20
2023-08-05T04:52:30.870Z,6.80
2023-08-05T04:54:58.696Z,6.15
2023-08-05T04:57:26.875Z,6.53
2023-08-05T04:59:54.838Z,5.88
2023-08-05T05:02:22.654Z,6.65
2023-08-05T05:04:50.481Z,6.50
2023-08-05T05:07:20.733Z,6.70
2023-08-05T05:09:48.533Z,6.18
2023-08-05T05:12:16.493Z,6.30
2023-08-05T05:14:45.395Z,7.15
2023-08-05T05:17:15.985Z,7.32
2023-08-05T05:19:46.070Z,6.72
2023-08-05T05:22:19.456Z,7.65
2023-08-05T05:24:49.758Z,7.97
2023-08-05T05:27:19.397Z,7.22
2023-08-05T05:29:47.517Z,7.45
2023-08-05T05:32:15.364Z,7.97
2023-08-05T05:34:43.083Z,6.95
2023-08-05T05:37:11.009Z,7.30
2023-08-05T05:39:41.342Z,6.90
2023-08-05T05:42:09.211Z,7.63
2023-08-05T05:44:37.186Z,7.05
2023-08-05T05:47:05.340Z,7.90
2023-08-05T05:49:34.548Z,8.15
2023-08-05T05:52:03.321Z,8.20
2023-08-05T05:54:31.398Z,8.50
2023-08-05T05:57:00.508Z,9.30
2023-08-05T05:59:28.394Z,9.45
2023-08-05T06:01:56.292Z,9.40
2023-08-05T06:04:29.153Z,9.43
2023-08-05T06:06:57.136Z,9.43
2023-08-05T06:09:27.146Z,8.85
2023-08-05T06:11:55.004Z,10.60
2023-08-05T06:14:24.270Z,11.63
2023-08-05T06:16:52.448Z,12.88
2023-08-05T06:19:20.691Z,13.00
2023-08-05T06:21:49.032Z,14.90
2023-08-05T06:24:17.043Z,14.15
2023-08-05T06:26:45.108Z,15.25
2023-08-05T06:29:13.092Z,14.73
2023-08-05T06:31:42.286Z,15.80
2023-08-05T06:34:10.285Z,15.27
2023-08-05T06:36:38.072Z,16.60
2023-08-05T06:39:06.019Z,15.90
2023-08-05T06:41:33.995Z,15.43
2023-08-05T06:44:05.450Z,15.57
2023-08-05T06:46:38.101Z,14.55
2023-08-05T06:49:08.666Z,16.65
2023-08-05T06:51:38.685Z,14.73
2023-08-05T06:54:12.205Z,13.20
2023-08-05T06:56:43.984Z,13.75
2023-08-05T06:59:18.481Z,14.60
2023-08-05T07:01:50.124Z,13.57
2023-08-05T07:04:25.766Z,13.57
2023-08-05T07:06:54.072Z,13.35
2023-08-05T07:09:21.911Z,11.98
2023-08-05T07:11:50.940Z,12.65
2023-08-05T07:14:20.296Z,12.85
2023-08-05T07:16:48.944Z,12.00
2023-08-05T07:19:18.415Z,12.23
2023-08-05T07:21:52.378Z,12.15
2023-08-05T07:24:28.181Z,12.20
2023-08-05T07:26:58.635Z,11.52
2023-08-05T07:29:30.444Z,11.57
2023-08-05T07:32:00.947Z,11.30
2023-08-05T07:34:32.933Z,8.13
2023-08-05T07:37:02.838Z,8.68
2023-08-05T07:39:34.853Z,8.20
2023-08-05T07:42:03.571Z,7.35
2023-08-05T07:44:32.778Z,7.57
2023-08-05T07:47:01.012Z,7.07
2023-08-05T07:49:29.188Z,7.25
2023-08-05T07:51:57.166Z,7.10
2023-08-05T07:54:27.549Z,8.32
2023-08-05T07:56:55.877Z,7.07
2023-08-05T07:59:26.138Z,7.97
2023-08-05T08:01:56.542Z,7.63
2023-08-05T08:04:24.654Z,6.97
2023-08-05T08:06:53.363Z,7.35
2023-08-05T08:09:21.368Z,7.35
2023-08-05T08:11:50.995Z,6.70
2023-08-05T08:14:19.092Z,6.53
2023-08-05T08:16:47.043Z,6.25
2023-08-05T08:19:17.289Z,6.90
2023-08-05T08:21:45.212Z,7.43
2023-08-05T08:24:13.203Z,6.70
2023-08-05T08:26:41.101Z,6.13
2023-08-05T08:29:10.260Z,6.35
2023-08-05T08:31:38.456Z,6.60
2023-08-05T08:34:06.372Z,7.13
2023-08-05T08:36:34.256Z,6.70
2023-08-05T08:39:13.276Z,7.45
2023-08-05T08:41:44.068Z,7.15
2023-08-05T08:44:14.245Z,7.18
2023-08-05T08:46:42.200Z,6.90
2023-08-05T08:49:10.398Z,6.95
2023-08-05T08:51:39.490Z,7.10
2023-08-05T08:54:08.190Z,6.60
2023-08-05T08:56:37.179Z,7.85
2023-08-05T08:59:05.234Z,8.25
2023-08-05T09:01:35.042Z,7.68
2023-08-05T09:04:03.117Z,7.38
2023-08-05T09:06:30.921Z,8.15
2023-08-05T09:08:59.078Z,6.68
2023-08-05T09:11:26.966Z,7.13
2023-08-05T09:13:55.228Z,6.30
2023-08-05T09:16:24.578Z,6.65
2023-08-05T09:18:57.472Z,5.32
2023-08-05T09:21:28.416Z,5.13
2023-08-05T09:23:57.032Z,5.32
2023-08-05T09:26:29.180Z,4.75
2023-08-05T09:28:57.645Z,4.70
2023-08-05T09:31:26.111Z,4.65
2023-08-05T09:33:55.434Z,5.35
2023-08-05T09:36:24.455Z,4.80
2023-08-05T09:39:02.712Z,5.10
2023-08-05T09:41:35.159Z,5.05
2023-08-05T09:44:05.494Z,5.20
2023-08-05T09:46:40.634Z,4.65
2023-08-05T09:49:10.616Z,5.40
2023-08-05T09:51:40.014Z,4.95
2023-08-05T09:54:10.209Z,5.50
2023-08-05T09:56:38.704Z,5.30
2023-08-05T09:59:07.156Z,5.75
2023-08-05T10:01:35.410Z,5.28
2023-08-05T10:04:03.780Z,6.53
2023-08-05T10:06:41.448Z,5.85
2023-08-05T10:09:12.586Z,5.70
2023-08-05T10:11:41.720Z,6.50
2023-08-05T10:14:12.497Z,6.65
2023-08-05T10:16:42.275Z,6.28
2023-08-05T10:19:15.729Z,6.18
2023-08-05T10:22:05.771Z,6.07
2023-08-05T10:24:58.223Z,5.30
2023-08-05T10:27:39.938Z,5.68
2023-08-05T10:30:13.932Z,5.30
2023-08-05T10:32:52.000Z,5.65
2023-08-05T10:35:29.209Z,5.50
2023-08-05T10:38:22.125Z,4.97
2023-08-05T10:40:58.256Z,5.50
2023-08-05T10:43:32.969Z,5.60
2023-08-05T10:48:48.048Z,5.20
2023-08-05T10:51:20.661Z,4.70
2023-08-05T10:54:08.352Z,4.95
2023-08-05T10:59:27.906Z,4.70
2023-08-05T11:02:00.821Z,4.93
2023-08-05T11:04:37.589Z,4.15
2023-08-05T11:07:16.563Z,5.10
2023-08-05T11:09:50.077Z,4.35
2023-08-05T11:12:28.402Z,3.60
2023-08-05T11:14:56.316Z,3.90
2023-08-05T11:17:24.180Z,3.67
2023-08-05T11:19:52.227Z,3.38
2023-08-05T11:22:25.369Z,3.55
2023-08-05T11:24:58.812Z,3.65
2023-08-05T11:27:31.739Z,4.35
2023-08-05T11:30:03.914Z,4.28
2023-08-05T11:32:32.443Z,4.07
2023-08-05T11:35:03.597Z,4.10
2023-08-05T11:37:37.668Z,4.43
2023-08-05T11:40:09.492Z,4.65
2023-08-05T11:42:38.193Z,5.13
2023-08-05T11:45:07.492Z,4.50
2023-08-05T11:47:38.507Z,4.40
2023-08-05T11:50:08.063Z,4.50
2023-08-05T11:52:38.023Z,5.30
2023-08-05T11:55:08.804Z,5.90
2023-08-05T11:57:36.844Z,6.05
2023-08-05T12:00:07.210Z,6.68
2023-08-05T12:02:36.549Z,6.65
2023-08-05T12:05:08.684Z,6.72
2023-08-05T12:07:42.876Z,7.80
2023-08-05T12:10:14.774Z,7.80
2023-08-05T12:12:45.815Z,8.40
2023-08-05T12:15:14.949Z,7.57
2023-08-05T12:17:48.530Z,8.18
2023-08-05T12:20:19.438Z,8.13
2023-08-05T12:22:55.542Z,8.18
2023-08-05T12:25:30.002Z,8.07
2023-08-05T12:28:03.517Z,7.90
2023-08-05T12:30:33.295Z,8.45
2023-08-05T12:33:01.671Z,7.35
2023-08-05T12:35:31.091Z,6.95
2023-08-05T12:37:59.230Z,6.95
2023-08-05T12:40:28.779Z,6.80
2023-08-05T12:42:56.604Z,7.70
2023-08-05T12:45:24.622Z,7.00
2023-08-05T12:47:52.463Z,6.22
2023-08-05T12:50:22.038Z,5.25
2023-08-05T12:52:50.063Z,4.68
2023-08-05T12:55:18.215Z,4.25
2023-08-05T12:57:47.622Z,3.92
2023-08-05T13:00:15.983Z,3.60
2023-08-05T13:02:46.457Z,4.10
2023-08-05T13:05:14.655Z,3.60
2023-08-05T13:07:42.515Z,3.90
2023-08-05T13:10:12.389Z,3.80
2023-08-05T13:12:40.683Z,3.88
2023-08-05T13:15:10.957Z,4.80
2023-08-05T13:17:39.080Z,4.43
2023-08-05T13:20:08.652Z,4.13
2023-08-05T13:22:36.487Z,4.20
2023-08-05T13:25:04.538Z,3.92
2023-08-05T13:27:33.903Z,4.13
2023-08-05T13:30:03.713Z,4.40
2023-08-05T13:32:33.185Z,4.65
2023-08-05T13:35:01.484Z,4.13
2023-08-05T13:37:29.474Z,3.40
2023-08-05T13:39:57.567Z,3.80
2023-08-05T13:42:25.687Z,3.92
2023-08-05T13:44:53.571Z,4.03
2023-08-05T13:47:21.587Z,3.80
2023-08-05T13:49:52.172Z,3.92
2023-08-05T13:52:20.039Z,4.05
2023-08-05T13:54:47.840Z,4.20
2023-08-05T13:57:15.911Z,4.00
2023-08-05T13:59:44.409Z,4.20
2023-08-05T14:02:12.422Z,4.32
2023-08-05T14:04:40.344Z,4.20
2023-08-05T14:07:09.544Z,4.70
2023-08-05T14:09:37.484Z,4.40
2023-08-05T14:12:05.947Z,4.18
2023-08-05T14:14:34.087Z,4.55
2023-08-05T14:17:02.115Z,4.82
2023-08-05T14:19:30.501Z,4.63
2023-08-05T14:21:59.920Z,4.80
2023-08-05T14:24:29.034Z,4.68
2023-08-05T14:26:57.101Z,5.03
2023-08-05T14:29:24.912Z,4.78
2023-08-05T14:31:53.044Z,4.70
2023-08-05T14:34:21.169Z,5.00
2023-08-05T14:36:48.941Z,5.03
2023-08-05T14:39:17.073Z,5.18
2023-08-05T14:41:46.261Z,4.35
2023-08-05T14:44:14.329Z,5.05
2023-08-05T14:46:42.783Z,5.00
2023-08-05T14:49:10.974Z,4.43
2023-08-05T14:51:39.248Z,4.53
2023-08-05T14:54:07.097Z,4.57
2023-08-05T14:56:34.939Z,4.68
2023-08-05T14:59:04.026Z,4.28
2023-08-05T15:01:32.196Z,4.78
2023-08-05T15:04:00.119Z,4.82
2023-08-05T15:06:28.520Z,4.93
2023-08-05T15:08:57.036Z,4.68
2023-08-05T15:11:25.365Z,5.03
2023-08-05T15:13:53.376Z,4.80
2023-08-05T15:16:28.690Z,5.57
2023-08-05T15:18:56.632Z,5.20
2023-08-05T15:21:24.404Z,5.03
2023-08-05T15:23:52.324Z,5.65
2023-08-05T15:26:20.244Z,5.50
2023-08-05T15:28:48.285Z,5.43
2023-08-05T15:31:18.716Z,5.78
2023-08-05T15:33:48.259Z,5.90
2023-08-05T15:36:16.258Z,6.57
2023-08-05T15:38:44.215Z,5.72
2023-08-05T15:41:12.178Z,5.13
2023-08-05T15:43:40.250Z,6.28
2023-08-05T15:46:08.438Z,6.55
2023-08-05T15:48:36.342Z,6.03
2023-08-05T15:51:06.130Z,4.93
2023-08-05T15:53:33.985Z,5.00
2023-08-05T15:56:02.105Z,3.53
2023-08-05T15:58:30.259Z,3.60
2023-08-05T16:01:01.773Z,3.83
2023-08-05T16:03:29.808Z,3.63
2023-08-05T16:06:06.505Z,3.50
2023-08-05T16:08:35.452Z,3.50
2023-08-05T16:11:04.606Z,3.40
2023-08-05T16:13:32.545Z,3.70
2023-08-05T16:16:07.648Z,3.00
2023-08-05T16:18:35.738Z,3.83
2023-08-05T16:21:16.076Z,3.70
2023-08-05T16:23:44.883Z,4.07
2023-08-05T16:26:13.993Z,3.35
2023-08-05T16:28:41.956Z,4.00
2023-08-05T16:31:10.194Z,3.97
2023-08-05T16:33:39.405Z,3.67
2023-08-05T16:36:09.350Z,3.50
2023-08-05T16:38:39.123Z,3.20
2023-08-05T16:41:07.701Z,3.42
2023-08-05T16:43:35.738Z,3.35
2023-08-05T16:46:04.044Z,3.47
2023-08-05T16:48:32.013Z,3.00
2023-08-05T16:51:01.488Z,3.30
2023-08-05T16:53:33.542Z,3.22
2023-08-05T16:56:23.040Z,3.10
2023-08-05T16:58:50.990Z,3.65
2023-08-05T17:01:19.048Z,3.25
2023-08-05T17:03:46.933Z,3.20
2023-08-05T17:06:15.000Z,3.45
2023-08-05T17:08:43.098Z,3.28
2023-08-05T17:11:12.480Z,3.13
2023-08-05T17:13:40.399Z,3.38
2023-08-05T17:16:08.383Z,3.70
2023-08-05T17:18:36.371Z,4.25
2023-08-05T17:21:04.253Z,3.50
2023-08-05T17:23:32.252Z,3.78
2023-08-05T17:26:00.130Z,3.42
2023-08-05T17:28:29.634Z,3.70
2023-08-05T17:30:57.454Z,3.85
2023-08-05T17:33:25.367Z,3.72
2023-08-05T17:35:54.423Z,4.45
2023-08-05T17:38:22.854Z,3.90
2023-08-05T17:40:52.087Z,4.00
2023-08-05T17:43:20.501Z,3.72
2023-08-05T17:45:57.625Z,3.78
2023-08-05T17:48:28.581Z,3.60
2023-08-05T17:51:00.308Z,3.65
2023-08-05T17:53:28.350Z,3.85
2023-08-05T17:55:56.296Z,3.80
2023-08-05T17:58:24.246Z,3.80
2023-08-05T18:00:53.644Z,4.20
2023-08-05T18:03:21.657Z,4.15
2023-08-05T18:05:51.888Z,4.13
2023-08-05T18:08:21.489Z,4.05
2023-08-05T18:10:49.334Z,3.63
2023-08-05T18:13:21.106Z,4.03
2023-08-05T18:15:53.681Z,4.10
2023-08-05T18:18:30.432Z,4.53
2023-08-05T18:21:05.392Z,4.28
2023-08-05T18:23:38.730Z,4.40
2023-08-05T18:26:09.203Z,4.03
2023-08-05T18:28:39.880Z,4.72
2023-08-05T18:31:13.862Z,4.50
2023-08-05T18:33:53.706Z,4.55
2023-08-05T18:36:26.505Z,4.50
2023-08-05T18:39:10.579Z,4.73
2023-08-05T18:41:53.622Z,4.90
2023-08-05T18:44:25.223Z,4.90
2023-08-05T18:50:08.374Z,4.90
2023-08-05T18:52:44.109Z,4.93
2023-08-05T18:55:23.496Z,4.47
2023-08-05T18:58:01.090Z,4.38
2023-08-05T19:00:30.542Z,4.55
2023-08-05T19:03:06.659Z,4.30
2023-08-05T19:05:44.786Z,4.05
2023-08-05T19:08:28.679Z,4.30
2023-08-05T19:11:00.666Z,4.75
2023-08-05T19:13:47.629Z,4.35
2023-08-05T19:16:28.786Z,4.20
2023-08-05T19:18:59.603Z,3.88
2023-08-05T19:21:55.452Z,3.50
2023-08-05T19:24:30.123Z,3.75
2023-08-05T19:27:04.189Z,3.75
2023-08-05T19:29:41.976Z,4.30
2023-08-05T19:35:17.705Z,4.38
2023-08-05T19:37:54.429Z,4.10
2023-08-05T19:40:29.392Z,4.20
2023-08-05T19:43:17.705Z,4.18
2023-08-05T19:48:58.347Z,4.70
2023-08-05T19:51:28.369Z,4.57
2023-08-05T19:54:00.748Z,4.07
2023-08-05T19:56:29.745Z,3.88
2023-08-05T19:59:00.116Z,4.93
2023-08-05T20:01:36.333Z,4.45
2023-08-05T20:04:18.605Z,4.45
2023-08-05T20:07:06.149Z,3.63
2023-08-05T20:10:05.379Z,4.38
2023-08-05T20:12:44.036Z,3.83
2023-08-05T20:15:16.377Z,4.15
2023-08-05T20:17:56.770Z,4.30
2023-08-05T20:20:34.054Z,4.35
2023-08-05T20:23:02.426Z,4.38
2023-08-05T20:25:30.183Z,4.47
2023-08-05T20:27:58.084Z,4.90
2023-08-05T20:30:26.010Z,4.80
2023-08-05T20:32:54.444Z,4.53
2023-08-05T20:35:22.369Z,4.50
2023-08-05T20:37:51.501Z,4.40
2023-08-05T20:40:19.373Z,4.40
2023-08-05T20:42:47.118Z,4.03
2023-08-05T20:45:15.149Z,4.65
2023-08-05T20:47:44.092Z,4.38
2023-08-05T20:50:12.079Z,4.50
2023-08-05T20:52:40.065Z,4.30
2023-08-05T20:55:09.727Z,4.55
2023-08-05T20:57:37.604Z,4.80
2023-08-05T21:00:06.329Z,4.43
2023-08-05T21:02:34.236Z,4.68
2023-08-05T21:05:04.401Z,4.93
2023-08-05T21:07:32.378Z,4.82
2023-08-05T21:10:00.337Z,5.20
2023-08-05T21:12:29.629Z,5.00
2023-08-05T21:14:57.419Z,4.85
2023-08-05T21:17:25.415Z,5.20
2023-08-05T21:19:53.488Z,5.32
2023-08-05T21:22:21.262Z,5.38
2023-08-05T21:24:49.776Z,4.95
2023-08-05T21:27:17.616Z,5.75
2023-08-05T21:29:46.781Z,6.05
2023-08-05T21:32:14.701Z,5.65
2023-08-05T21:34:42.933Z,5.93
2023-08-05T21:37:10.925Z,5.82
2023-08-05T21:39:38.688Z,5.60
2023-08-05T21:42:10.300Z,5.78
2023-08-05T21:44:38.160Z,5.63
2023-08-05T21:47:07.883Z,5.47
2023-08-05T21:49:36.858Z,4.63
2023-08-05T21:52:06.029Z,5.30
2023-08-05T21:54:34.088Z,5.28
2023-08-05T21:57:01.915Z,5.30
2023-08-05T21:59:30.974Z,5.15
2023-08-05T22:01:58.861Z,5.45
2023-08-05T22:04:28.087Z,4.90
2023-08-05T22:06:55.888Z,4.55
2023-08-05T22:09:23.809Z,5.13
2023-08-05T22:11:51.913Z,4.63
2023-08-05T22:14:19.862Z,4.60
2023-08-05T22:16:47.695Z,4.88
2023-08-05T22:19:15.571Z,4.85
2023-08-05T22:21:44.758Z,4.32
2023-08-05T22:24:13.980Z,4.28
2023-08-05T22:26:44.301Z,4.30
2023-08-05T22:29:12.255Z,4.38
2023-08-05T22:31:40.019Z,4.60
2023-08-05T22:34:08.016Z,4.22
2023-08-05T22:36:35.815Z,4.60
2023-08-05T22:39:04.964Z,4.38
2023-08-05T22:41:32.879Z,4.22
2023-08-05T22:44:00.619Z,4.65
2023-08-05T22:46:28.673Z,3.97
2023-08-05T22:48:56.483Z,4.40
2023-08-05T22:51:24.436Z,4.75
2023-08-05T22:53:52.437Z,4.40
2023-08-05T22:56:21.596Z,5.07
2023-08-05T22:58:53.157Z,4.40
2023-08-05T23:01:21.680Z,4.28
2023-08-05T23:03:49.652Z,4.07
2023-08-05T23:06:18.562Z,4.32
2023-08-05T23:08:46.737Z,4.18
2023-08-05T23:11:14.774Z,4.18
2023-08-05T23:13:44.024Z,4.57
2023-08-05T23:16:13.085Z,3.90
2023-08-05T23:18:41.501Z,4.18
2023-08-05T23:21:09.489Z,4.28
2023-08-05T23:23:37.500Z,4.38
2023-08-05T23:26:06.632Z,4.65
2023-08-05T23:28:35.531Z,4.47
2023-08-05T23:31:05.682Z,4.70
2023-08-05T23:33:33.944Z,4.00
2023-08-05T23:36:02.172Z,4.50
2023-08-05T23:38:29.949Z,4.60
2023-08-05T23:40:57.693Z,4.38
2023-08-05T23:43:25.648Z,4.55
2023-08-05T23:45:53.477Z,4.40
2023-08-05T23:48:22.811Z,4.63
2023-08-05T23:50:50.796Z,4.43
2023-08-05T23:53:18.555Z,4.82
2023-08-05T23:55:48.097Z,4.97
2023-08-05T23:58:15.920Z,5.13
